Terminal Aerodrome Forecast
Issued by NWS

Current Version | Previous Version | Graphics & Text | Print | Product List | Glossary On
Versions: 1 2 3 4 5 6 7 8 9 10 11 12 13 14 15 16 17 18 19 20
000
FTUS41 KPBZ 240800 AAA
TAFMGW
TAF AMD
KMGW 240841Z 2409/2506 18010G17KT P6SM OVC060
     FM241500 19013G29KT P6SM BKN050
     FM241600 20017G39KT P6SM BKN050
     FM242100 23014G30KT P6SM BKN050=

USA.gov is the U.S. government's official web portal to all federal, state and local government web resources and services.